sensor_id;sensor_type;location;lat;lon;timestamp;P1;durP1;ratioP1;P2;durP2;ratioP2
21170;SDS011;10743;52.160;20.910;2024-01-30T00:00:33;54.97;;;20.63;;
21170;SDS011;10743;52.160;20.910;2024-01-30T00:03:00;46.40;;;20.27;;
21170;SDS011;10743;52.160;20.910;2024-01-30T00:05:27;52.00;;;19.63;;
21170;SDS011;10743;52.160;20.910;2024-01-30T00:07:54;39.60;;;17.63;;
21170;SDS011;10743;52.160;20.910;2024-01-30T00:10:21;49.17;;;18.83;;
21170;SDS011;10743;52.160;20.910;2024-01-30T00:12:48;45.57;;;17.43;;
21170;SDS011;10743;52.160;20.910;2024-01-30T00:15:15;49.27;;;16.77;;
21170;SDS011;10743;52.160;20.910;2024-01-30T00:17:42;45.00;;;17.87;;
21170;SDS011;10743;52.160;20.910;2024-01-30T00:20:10;42.00;;;17.70;;
21170;SDS011;10743;52.160;20.910;2024-01-30T00:22:37;43.63;;;17.43;;
21170;SDS011;10743;52.160;20.910;2024-01-30T00:25:04;54.80;;;16.97;;
21170;SDS011;10743;52.160;20.910;2024-01-30T00:27:31;46.40;;;18.20;;
21170;SDS011;10743;52.160;20.910;2024-01-30T00:29:58;45.67;;;17.13;;
21170;SDS011;10743;52.160;20.910;2024-01-30T00:32:25;44.60;;;18.37;;
21170;SDS011;10743;52.160;20.910;2024-01-30T00:34:52;49.97;;;18.27;;
21170;SDS011;10743;52.160;20.910;2024-01-30T00:37:19;39.63;;;16.03;;
21170;SDS011;10743;52.160;20.910;2024-01-30T00:39:46;42.70;;;16.87;;
21170;SDS011;10743;52.160;20.910;2024-01-30T00:42:13;47.87;;;16.80;;
21170;SDS011;10743;52.160;20.910;2024-01-30T00:44:41;43.17;;;16.57;;
21170;SDS011;10743;52.160;20.910;2024-01-30T00:47:08;39.23;;;16.70;;
21170;SDS011;10743;52.160;20.910;2024-01-30T00:49:35;45.73;;;16.83;;
21170;SDS011;10743;52.160;20.910;2024-01-30T00:52:03;50.20;;;16.97;;
21170;SDS011;10743;52.160;20.910;2024-01-30T00:54:30;41.10;;;16.90;;
21170;SDS011;10743;52.160;20.910;2024-01-30T00:56:57;43.30;;;16.70;;
21170;SDS011;10743;52.160;20.910;2024-01-30T00:59:24;44.53;;;17.67;;
21170;SDS011;10743;52.160;20.910;2024-01-30T01:01:52;38.47;;;16.03;;
21170;SDS011;10743;52.160;20.910;2024-01-30T01:04:19;48.67;;;16.83;;
21170;SDS011;10743;52.160;20.910;2024-01-30T01:06:47;41.37;;;15.87;;
21170;SDS011;10743;52.160;20.910;2024-01-30T01:09:15;44.30;;;16.17;;
21170;SDS011;10743;52.160;20.910;2024-01-30T01:11:42;36.53;;;15.17;;
21170;SDS011;10743;52.160;20.910;2024-01-30T01:14:09;39.93;;;15.93;;
21170;SDS011;10743;52.160;20.910;2024-01-30T01:16:36;40.40;;;15.57;;
21170;SDS011;10743;52.160;20.910;2024-01-30T01:19:04;37.40;;;15.27;;
21170;SDS011;10743;52.160;20.910;2024-01-30T01:21:31;44.67;;;17.03;;
21170;SDS011;10743;52.160;20.910;2024-01-30T01:23:58;52.37;;;18.93;;
21170;SDS011;10743;52.160;20.910;2024-01-30T01:26:25;44.73;;;18.90;;
21170;SDS011;10743;52.160;20.910;2024-01-30T01:28:52;55.03;;;20.43;;
21170;SDS011;10743;52.160;20.910;2024-01-30T01:31:19;55.83;;;21.07;;
21170;SDS011;10743;52.160;20.910;2024-01-30T01:33:49;55.70;;;20.33;;
21170;SDS011;10743;52.160;20.910;2024-01-30T01:36:16;45.17;;;19.50;;
21170;SDS011;10743;52.160;20.910;2024-01-30T01:38:43;46.83;;;20.33;;
21170;SDS011;10743;52.160;20.910;2024-01-30T01:41:10;53.83;;;19.67;;
21170;SDS011;10743;52.160;20.910;2024-01-30T01:43:37;44.43;;;16.87;;
21170;SDS011;10743;52.160;20.910;2024-01-30T01:46:06;43.20;;;17.73;;
21170;SDS011;10743;52.160;20.910;2024-01-30T01:48:35;47.30;;;18.37;;
21170;SDS011;10743;52.160;20.910;2024-01-30T01:51:03;49.03;;;16.97;;
21170;SDS011;10743;52.160;20.910;2024-01-30T01:53:31;53.43;;;21.03;;
21170;SDS011;10743;52.160;20.910;2024-01-30T01:55:58;101.90;;;40.73;;
21170;SDS011;10743;52.160;20.910;2024-01-30T01:58:25;146.97;;;52.67;;
21170;SDS011;10743;52.160;20.910;2024-01-30T02:00:57;132.10;;;47.60;;
21170;SDS011;10743;52.160;20.910;2024-01-30T02:03:26;96.20;;;33.67;;
21170;SDS011;10743;52.160;20.910;2024-01-30T02:05:53;89.90;;;33.50;;
21170;SDS011;10743;52.160;20.910;2024-01-30T02:08:21;79.50;;;28.97;;
21170;SDS011;10743;52.160;20.910;2024-01-30T02:10:50;51.43;;;21.23;;
21170;SDS011;10743;52.160;20.910;2024-01-30T02:13:17;51.33;;;18.50;;
21170;SDS011;10743;52.160;20.910;2024-01-30T02:15:48;49.37;;;17.43;;
21170;SDS011;10743;52.160;20.910;2024-01-30T02:18:19;47.70;;;16.70;;
21170;SDS011;10743;52.160;20.910;2024-01-30T02:20:50;53.20;;;17.77;;
21170;SDS011;10743;52.160;20.910;2024-01-30T02:23:23;47.97;;;16.73;;
21170;SDS011;10743;52.160;20.910;2024-01-30T02:25:54;41.57;;;16.23;;
21170;SDS011;10743;52.160;20.910;2024-01-30T02:28:21;48.37;;;17.67;;
21170;SDS011;10743;52.160;20.910;2024-01-30T02:30:48;45.13;;;17.70;;
21170;SDS011;10743;52.160;20.910;2024-01-30T02:33:15;51.10;;;18.20;;
21170;SDS011;10743;52.160;20.910;2024-01-30T02:35:42;50.03;;;18.30;;
21170;SDS011;10743;52.160;20.910;2024-01-30T02:38:09;49.80;;;19.27;;
21170;SDS011;10743;52.160;20.910;2024-01-30T02:40:36;48.70;;;18.10;;
21170;SDS011;10743;52.160;20.910;2024-01-30T02:43:03;48.43;;;17.27;;
21170;SDS011;10743;52.160;20.910;2024-01-30T02:45:30;50.73;;;18.07;;
21170;SDS011;10743;52.160;20.910;2024-01-30T02:47:57;49.07;;;16.70;;
21170;SDS011;10743;52.160;20.910;2024-01-30T02:50:25;48.37;;;17.13;;
21170;SDS011;10743;52.160;20.910;2024-01-30T02:52:52;53.63;;;17.33;;
21170;SDS011;10743;52.160;20.910;2024-01-30T02:55:19;41.83;;;16.40;;
21170;SDS011;10743;52.160;20.910;2024-01-30T02:57:46;48.00;;;16.40;;
21170;SDS011;10743;52.160;20.910;2024-01-30T03:00:13;38.73;;;15.77;;
21170;SDS011;10743;52.160;20.910;2024-01-30T03:02:40;39.53;;;15.53;;
21170;SDS011;10743;52.160;20.910;2024-01-30T03:05:08;42.33;;;15.83;;
21170;SDS011;10743;52.160;20.910;2024-01-30T03:07:35;44.77;;;16.83;;
21170;SDS011;10743;52.160;20.910;2024-01-30T03:10:03;48.93;;;15.63;;
21170;SDS011;10743;52.160;20.910;2024-01-30T03:12:32;43.73;;;16.83;;
21170;SDS011;10743;52.160;20.910;2024-01-30T03:14:59;37.57;;;15.27;;
21170;SDS011;10743;52.160;20.910;2024-01-30T03:17:26;37.93;;;14.77;;
21170;SDS011;10743;52.160;20.910;2024-01-30T03:19:53;38.10;;;15.53;;
21170;SDS011;10743;52.160;20.910;2024-01-30T03:22:21;40.97;;;14.93;;
21170;SDS011;10743;52.160;20.910;2024-01-30T03:24:48;40.37;;;15.60;;
21170;SDS011;10743;52.160;20.910;2024-01-30T03:27:15;42.30;;;15.03;;
21170;SDS011;10743;52.160;20.910;2024-01-30T03:29:42;43.53;;;15.70;;
21170;SDS011;10743;52.160;20.910;2024-01-30T03:32:09;37.53;;;15.30;;
21170;SDS011;10743;52.160;20.910;2024-01-30T03:34:36;38.33;;;15.80;;
21170;SDS011;10743;52.160;20.910;2024-01-30T03:37:03;38.47;;;15.40;;
21170;SDS011;10743;52.160;20.910;2024-01-30T03:39:30;45.67;;;15.97;;
21170;SDS011;10743;52.160;20.910;2024-01-30T03:41:57;38.20;;;15.17;;
21170;SDS011;10743;52.160;20.910;2024-01-30T03:44:24;45.43;;;15.33;;
21170;SDS011;10743;52.160;20.910;2024-01-30T03:46:51;37.57;;;14.17;;
21170;SDS011;10743;52.160;20.910;2024-01-30T03:49:18;43.67;;;16.80;;
21170;SDS011;10743;52.160;20.910;2024-01-30T03:51:46;45.33;;;15.60;;
21170;SDS011;10743;52.160;20.910;2024-01-30T03:54:14;35.43;;;13.87;;
21170;SDS011;10743;52.160;20.910;2024-01-30T03:56:41;43.90;;;14.20;;
21170;SDS011;10743;52.160;20.910;2024-01-30T03:59:08;44.37;;;15.57;;
21170;SDS011;10743;52.160;20.910;2024-01-30T04:01:35;41.37;;;14.80;;
21170;SDS011;10743;52.160;20.910;2024-01-30T04:04:02;38.90;;;15.30;;
21170;SDS011;10743;52.160;20.910;2024-01-30T04:06:29;47.83;;;14.80;;
21170;SDS011;10743;52.160;20.910;2024-01-30T04:08:56;39.27;;;14.30;;
21170;SDS011;10743;52.160;20.910;2024-01-30T04:11:23;34.07;;;14.17;;
21170;SDS011;10743;52.160;20.910;2024-01-30T04:13:51;42.70;;;15.00;;
21170;SDS011;10743;52.160;20.910;2024-01-30T04:16:21;38.07;;;14.80;;
21170;SDS011;10743;52.160;20.910;2024-01-30T04:18:49;40.13;;;14.23;;
21170;SDS011;10743;52.160;20.910;2024-01-30T04:21:17;39.40;;;14.97;;
21170;SDS011;10743;52.160;20.910;2024-01-30T04:23:44;39.67;;;15.73;;
21170;SDS011;10743;52.160;20.910;2024-01-30T04:26:12;39.73;;;15.07;;
21170;SDS011;10743;52.160;20.910;2024-01-30T04:28:41;40.07;;;14.53;;
21170;SDS011;10743;52.160;20.910;2024-01-30T04:31:08;43.93;;;15.53;;
21170;SDS011;10743;52.160;20.910;2024-01-30T04:33:35;36.73;;;13.97;;
21170;SDS011;10743;52.160;20.910;2024-01-30T04:36:03;35.73;;;13.87;;
21170;SDS011;10743;52.160;20.910;2024-01-30T04:38:31;42.10;;;14.50;;
21170;SDS011;10743;52.160;20.910;2024-01-30T04:40:58;40.67;;;15.00;;
21170;SDS011;10743;52.160;20.910;2024-01-30T04:43:25;34.10;;;13.73;;
21170;SDS011;10743;52.160;20.910;2024-01-30T04:45:53;33.27;;;13.43;;
21170;SDS011;10743;52.160;20.910;2024-01-30T04:48:20;39.13;;;15.27;;
21170;SDS011;10743;52.160;20.910;2024-01-30T04:50:47;37.87;;;14.80;;
21170;SDS011;10743;52.160;20.910;2024-01-30T04:53:14;41.07;;;14.93;;
21170;SDS011;10743;52.160;20.910;2024-01-30T04:55:41;37.97;;;15.50;;
21170;SDS011;10743;52.160;20.910;2024-01-30T04:58:08;39.47;;;15.27;;
21170;SDS011;10743;52.160;20.910;2024-01-30T05:00:35;48.70;;;16.17;;
21170;SDS011;10743;52.160;20.910;2024-01-30T05:03:02;32.73;;;14.67;;
21170;SDS011;10743;52.160;20.910;2024-01-30T05:05:29;42.90;;;16.73;;
21170;SDS011;10743;52.160;20.910;2024-01-30T05:07:56;41.50;;;18.13;;
21170;SDS011;10743;52.160;20.910;2024-01-30T05:10:23;45.40;;;16.43;;
21170;SDS011;10743;52.160;20.910;2024-01-30T05:12:50;52.30;;;17.83;;
21170;SDS011;10743;52.160;20.910;2024-01-30T05:15:18;42.17;;;16.33;;
21170;SDS011;10743;52.160;20.910;2024-01-30T05:17:46;48.63;;;16.90;;
21170;SDS011;10743;52.160;20.910;2024-01-30T05:20:13;49.37;;;18.70;;
21170;SDS011;10743;52.160;20.910;2024-01-30T05:22:40;42.13;;;19.03;;
21170;SDS011;10743;52.160;20.910;2024-01-30T05:25:14;47.53;;;17.57;;
21170;SDS011;10743;52.160;20.910;2024-01-30T05:27:41;45.03;;;16.80;;
21170;SDS011;10743;52.160;20.910;2024-01-30T05:30:09;47.73;;;17.33;;
21170;SDS011;10743;52.160;20.910;2024-01-30T05:32:36;42.10;;;16.40;;
21170;SDS011;10743;52.160;20.910;2024-01-30T05:35:03;43.93;;;16.03;;
21170;SDS011;10743;52.160;20.910;2024-01-30T05:37:30;40.07;;;16.80;;
21170;SDS011;10743;52.160;20.910;2024-01-30T05:39:58;46.33;;;16.67;;
21170;SDS011;10743;52.160;20.910;2024-01-30T05:42:25;51.43;;;19.27;;
21170;SDS011;10743;52.160;20.910;2024-01-30T05:44:53;56.13;;;19.43;;
21170;SDS011;10743;52.160;20.910;2024-01-30T05:47:20;56.97;;;23.23;;
21170;SDS011;10743;52.160;20.910;2024-01-30T05:49:47;63.50;;;24.00;;
21170;SDS011;10743;52.160;20.910;2024-01-30T05:52:14;73.73;;;26.17;;
21170;SDS011;10743;52.160;20.910;2024-01-30T05:54:41;61.53;;;23.43;;
21170;SDS011;10743;52.160;20.910;2024-01-30T05:57:08;57.00;;;21.80;;
21170;SDS011;10743;52.160;20.910;2024-01-30T05:59:36;50.40;;;20.73;;
21170;SDS011;10743;52.160;20.910;2024-01-30T06:02:07;53.47;;;20.67;;
21170;SDS011;10743;52.160;20.910;2024-01-30T06:04:34;49.20;;;21.20;;
21170;SDS011;10743;52.160;20.910;2024-01-30T06:07:01;48.87;;;19.40;;
21170;SDS011;10743;52.160;20.910;2024-01-30T06:09:29;52.03;;;17.67;;
21170;SDS011;10743;52.160;20.910;2024-01-30T06:11:56;39.13;;;15.40;;
21170;SDS011;10743;52.160;20.910;2024-01-30T06:14:23;41.00;;;15.67;;
21170;SDS011;10743;52.160;20.910;2024-01-30T06:16:50;39.23;;;14.90;;
21170;SDS011;10743;52.160;20.910;2024-01-30T06:19:17;45.43;;;16.07;;
21170;SDS011;10743;52.160;20.910;2024-01-30T06:21:44;41.00;;;14.50;;
21170;SDS011;10743;52.160;20.910;2024-01-30T06:24:12;41.33;;;15.77;;
21170;SDS011;10743;52.160;20.910;2024-01-30T06:26:39;50.30;;;16.63;;
21170;SDS011;10743;52.160;20.910;2024-01-30T06:29:06;43.37;;;16.30;;
21170;SDS011;10743;52.160;20.910;2024-01-30T06:31:39;42.20;;;16.50;;
21170;SDS011;10743;52.160;20.910;2024-01-30T06:34:09;37.60;;;14.33;;
21170;SDS011;10743;52.160;20.910;2024-01-30T06:36:38;44.43;;;15.60;;
21170;SDS011;10743;52.160;20.910;2024-01-30T06:39:05;38.33;;;15.17;;
21170;SDS011;10743;52.160;20.910;2024-01-30T06:41:33;40.27;;;14.97;;
21170;SDS011;10743;52.160;20.910;2024-01-30T06:44:04;38.73;;;15.20;;
21170;SDS011;10743;52.160;20.910;2024-01-30T06:46:32;42.17;;;15.53;;
21170;SDS011;10743;52.160;20.910;2024-01-30T06:49:00;44.73;;;15.27;;
21170;SDS011;10743;52.160;20.910;2024-01-30T06:51:28;37.93;;;14.57;;
21170;SDS011;10743;52.160;20.910;2024-01-30T06:53:55;35.63;;;14.43;;
21170;SDS011;10743;52.160;20.910;2024-01-30T06:56:22;38.50;;;14.93;;
21170;SDS011;10743;52.160;20.910;2024-01-30T06:58:50;48.10;;;17.37;;
21170;SDS011;10743;52.160;20.910;2024-01-30T07:01:17;41.83;;;16.40;;
21170;SDS011;10743;52.160;20.910;2024-01-30T07:03:44;37.37;;;14.50;;
21170;SDS011;10743;52.160;20.910;2024-01-30T07:06:12;39.00;;;15.17;;
21170;SDS011;10743;52.160;20.910;2024-01-30T07:08:39;38.50;;;15.17;;
21170;SDS011;10743;52.160;20.910;2024-01-30T07:11:06;37.60;;;15.37;;
21170;SDS011;10743;52.160;20.910;2024-01-30T07:13:34;40.03;;;15.23;;
21170;SDS011;10743;52.160;20.910;2024-01-30T07:16:01;38.60;;;14.67;;
21170;SDS011;10743;52.160;20.910;2024-01-30T07:18:29;37.37;;;15.27;;
21170;SDS011;10743;52.160;20.910;2024-01-30T07:20:56;38.10;;;14.70;;
21170;SDS011;10743;52.160;20.910;2024-01-30T07:23:23;37.13;;;14.73;;
21170;SDS011;10743;52.160;20.910;2024-01-30T07:25:50;43.57;;;16.27;;
21170;SDS011;10743;52.160;20.910;2024-01-30T07:28:17;40.10;;;16.27;;
21170;SDS011;10743;52.160;20.910;2024-01-30T07:30:44;35.70;;;15.27;;
21170;SDS011;10743;52.160;20.910;2024-01-30T07:33:12;47.20;;;16.90;;
21170;SDS011;10743;52.160;20.910;2024-01-30T07:35:39;45.10;;;16.43;;
21170;SDS011;10743;52.160;20.910;2024-01-30T07:38:07;46.90;;;16.83;;
21170;SDS011;10743;52.160;20.910;2024-01-30T07:40:34;39.53;;;15.47;;
21170;SDS011;10743;52.160;20.910;2024-01-30T07:43:01;41.37;;;15.77;;
21170;SDS011;10743;52.160;20.910;2024-01-30T07:45:29;43.10;;;16.30;;
21170;SDS011;10743;52.160;20.910;2024-01-30T07:47:59;42.93;;;17.20;;
21170;SDS011;10743;52.160;20.910;2024-01-30T07:50:27;44.40;;;15.53;;
21170;SDS011;10743;52.160;20.910;2024-01-30T07:52:58;44.93;;;15.40;;
21170;SDS011;10743;52.160;20.910;2024-01-30T07:55:26;40.63;;;14.50;;
21170;SDS011;10743;52.160;20.910;2024-01-30T07:57:58;35.50;;;14.30;;
21170;SDS011;10743;52.160;20.910;2024-01-30T08:00:26;43.70;;;17.70;;
21170;SDS011;10743;52.160;20.910;2024-01-30T08:02:53;40.07;;;16.53;;
21170;SDS011;10743;52.160;20.910;2024-01-30T08:05:22;35.47;;;16.00;;
21170;SDS011;10743;52.160;20.910;2024-01-30T08:07:50;42.60;;;15.67;;
21170;SDS011;10743;52.160;20.910;2024-01-30T08:10:17;49.80;;;17.23;;
21170;SDS011;10743;52.160;20.910;2024-01-30T08:12:45;40.43;;;15.73;;
21170;SDS011;10743;52.160;20.910;2024-01-30T08:15:12;34.43;;;14.10;;
21170;SDS011;10743;52.160;20.910;2024-01-30T08:17:39;37.37;;;15.07;;
21170;SDS011;10743;52.160;20.910;2024-01-30T08:20:06;39.40;;;15.40;;
21170;SDS011;10743;52.160;20.910;2024-01-30T08:22:38;30.03;;;12.20;;
21170;SDS011;10743;52.160;20.910;2024-01-30T08:25:06;36.70;;;12.27;;
21170;SDS011;10743;52.160;20.910;2024-01-30T08:27:35;32.93;;;12.20;;
21170;SDS011;10743;52.160;20.910;2024-01-30T08:30:05;29.30;;;13.03;;
21170;SDS011;10743;52.160;20.910;2024-01-30T08:32:33;31.60;;;12.87;;
21170;SDS011;10743;52.160;20.910;2024-01-30T08:35:00;32.00;;;12.97;;
21170;SDS011;10743;52.160;20.910;2024-01-30T08:37:30;32.40;;;12.80;;
21170;SDS011;10743;52.160;20.910;2024-01-30T08:39:57;32.77;;;12.67;;
21170;SDS011;10743;52.160;20.910;2024-01-30T08:42:24;30.77;;;12.97;;
21170;SDS011;10743;52.160;20.910;2024-01-30T08:44:52;30.23;;;11.57;;
21170;SDS011;10743;52.160;20.910;2024-01-30T08:47:19;27.97;;;11.57;;
21170;SDS011;10743;52.160;20.910;2024-01-30T08:49:47;26.93;;;12.13;;
21170;SDS011;10743;52.160;20.910;2024-01-30T08:52:14;31.43;;;12.30;;
21170;SDS011;10743;52.160;20.910;2024-01-30T08:54:41;30.00;;;11.57;;
21170;SDS011;10743;52.160;20.910;2024-01-30T08:57:08;35.30;;;12.63;;
21170;SDS011;10743;52.160;20.910;2024-01-30T08:59:35;29.87;;;11.57;;
21170;SDS011;10743;52.160;20.910;2024-01-30T09:02:02;24.67;;;10.70;;
21170;SDS011;10743;52.160;20.910;2024-01-30T09:04:38;26.80;;;11.63;;
21170;SDS011;10743;52.160;20.910;2024-01-30T09:07:06;24.57;;;11.13;;
21170;SDS011;10743;52.160;20.910;2024-01-30T09:09:39;28.40;;;10.67;;
21170;SDS011;10743;52.160;20.910;2024-01-30T09:12:07;31.43;;;11.50;;
21170;SDS011;10743;52.160;20.910;2024-01-30T09:14:38;29.23;;;11.33;;
21170;SDS011;10743;52.160;20.910;2024-01-30T09:17:07;30.20;;;11.73;;
21170;SDS011;10743;52.160;20.910;2024-01-30T09:19:34;27.03;;;10.33;;
21170;SDS011;10743;52.160;20.910;2024-01-30T09:22:02;31.27;;;11.67;;
21170;SDS011;10743;52.160;20.910;2024-01-30T09:24:30;27.93;;;9.80;;
21170;SDS011;10743;52.160;20.910;2024-01-30T09:26:57;27.10;;;11.23;;
21170;SDS011;10743;52.160;20.910;2024-01-30T09:29:24;29.80;;;11.10;;
21170;SDS011;10743;52.160;20.910;2024-01-30T09:31:51;23.17;;;10.27;;
21170;SDS011;10743;52.160;20.910;2024-01-30T09:34:19;28.80;;;10.20;;
21170;SDS011;10743;52.160;20.910;2024-01-30T09:36:47;31.40;;;10.30;;
21170;SDS011;10743;52.160;20.910;2024-01-30T09:39:14;21.90;;;10.83;;
21170;SDS011;10743;52.160;20.910;2024-01-30T09:41:48;29.10;;;10.23;;
21170;SDS011;10743;52.160;20.910;2024-01-30T09:44:28;26.87;;;10.47;;
21170;SDS011;10743;52.160;20.910;2024-01-30T09:46:57;27.87;;;10.97;;
21170;SDS011;10743;52.160;20.910;2024-01-30T09:49:31;30.90;;;10.90;;
21170;SDS011;10743;52.160;20.910;2024-01-30T09:52:00;26.30;;;10.10;;
21170;SDS011;10743;52.160;20.910;2024-01-30T09:54:31;26.00;;;10.97;;
21170;SDS011;10743;52.160;20.910;2024-01-30T09:57:02;27.53;;;10.67;;
21170;SDS011;10743;52.160;20.910;2024-01-30T09:59:31;24.20;;;10.30;;
21170;SDS011;10743;52.160;20.910;2024-01-30T10:02:00;23.47;;;10.33;;
21170;SDS011;10743;52.160;20.910;2024-01-30T10:04:27;22.30;;;9.80;;
21170;SDS011;10743;52.160;20.910;2024-01-30T10:06:54;27.00;;;9.63;;
21170;SDS011;10743;52.160;20.910;2024-01-30T10:09:21;26.87;;;10.60;;
21170;SDS011;10743;52.160;20.910;2024-01-30T10:11:49;26.07;;;10.03;;
21170;SDS011;10743;52.160;20.910;2024-01-30T10:14:18;20.13;;;9.33;;
21170;SDS011;10743;52.160;20.910;2024-01-30T10:16:46;22.37;;;9.97;;
21170;SDS011;10743;52.160;20.910;2024-01-30T10:19:13;27.80;;;9.57;;
21170;SDS011;10743;52.160;20.910;2024-01-30T10:21:40;21.50;;;8.77;;
21170;SDS011;10743;52.160;20.910;2024-01-30T10:24:07;27.70;;;10.63;;
21170;SDS011;10743;52.160;20.910;2024-01-30T10:26:37;24.43;;;9.53;;
21170;SDS011;10743;52.160;20.910;2024-01-30T10:29:04;26.57;;;10.97;;
21170;SDS011;10743;52.160;20.910;2024-01-30T10:31:32;27.17;;;10.87;;
21170;SDS011;10743;52.160;20.910;2024-01-30T10:33:59;24.93;;;10.63;;
21170;SDS011;10743;52.160;20.910;2024-01-30T10:36:41;33.97;;;12.90;;
21170;SDS011;10743;52.160;20.910;2024-01-30T10:39:13;27.13;;;11.80;;
21170;SDS011;10743;52.160;20.910;2024-01-30T10:41:43;27.13;;;11.47;;
21170;SDS011;10743;52.160;20.910;2024-01-30T10:44:11;29.83;;;11.33;;
21170;SDS011;10743;52.160;20.910;2024-01-30T10:46:39;27.70;;;11.87;;
21170;SDS011;10743;52.160;20.910;2024-01-30T10:49:09;32.73;;;11.87;;
21170;SDS011;10743;52.160;20.910;2024-01-30T10:51:37;21.10;;;9.87;;
21170;SDS011;10743;52.160;20.910;2024-01-30T10:54:06;27.80;;;10.87;;
21170;SDS011;10743;52.160;20.910;2024-01-30T10:56:33;22.97;;;10.93;;
21170;SDS011;10743;52.160;20.910;2024-01-30T10:59:02;26.77;;;11.43;;
21170;SDS011;10743;52.160;20.910;2024-01-30T11:01:30;28.67;;;11.20;;
21170;SDS011;10743;52.160;20.910;2024-01-30T11:03:57;26.83;;;11.20;;
21170;SDS011;10743;52.160;20.910;2024-01-30T11:06:25;25.57;;;10.80;;
21170;SDS011;10743;52.160;20.910;2024-01-30T11:09:02;26.80;;;11.33;;
21170;SDS011;10743;52.160;20.910;2024-01-30T11:11:49;29.30;;;11.40;;
21170;SDS011;10743;52.160;20.910;2024-01-30T11:14:28;26.83;;;10.10;;
21170;SDS011;10743;52.160;20.910;2024-01-30T11:16:57;32.03;;;12.50;;
21170;SDS011;10743;52.160;20.910;2024-01-30T11:19:26;24.27;;;11.27;;
21170;SDS011;10743;52.160;20.910;2024-01-30T11:21:54;33.93;;;12.47;;
21170;SDS011;10743;52.160;20.910;2024-01-30T11:24:23;28.80;;;11.87;;
21170;SDS011;10743;52.160;20.910;2024-01-30T11:26:57;25.43;;;11.53;;
21170;SDS011;10743;52.160;20.910;2024-01-30T11:29:28;26.83;;;10.93;;
21170;SDS011;10743;52.160;20.910;2024-01-30T11:31:56;24.90;;;11.30;;
21170;SDS011;10743;52.160;20.910;2024-01-30T11:34:25;25.47;;;10.23;;
21170;SDS011;10743;52.160;20.910;2024-01-30T11:36:55;23.43;;;10.67;;
21170;SDS011;10743;52.160;20.910;2024-01-30T11:39:31;23.97;;;10.07;;
21170;SDS011;10743;52.160;20.910;2024-01-30T11:41:59;22.57;;;10.07;;
21170;SDS011;10743;52.160;20.910;2024-01-30T11:44:26;26.67;;;11.13;;
21170;SDS011;10743;52.160;20.910;2024-01-30T11:46:53;23.70;;;10.73;;
21170;SDS011;10743;52.160;20.910;2024-01-30T11:49:20;23.57;;;10.60;;
21170;SDS011;10743;52.160;20.910;2024-01-30T11:51:48;29.87;;;11.13;;
21170;SDS011;10743;52.160;20.910;2024-01-30T11:54:16;25.97;;;10.50;;
21170;SDS011;10743;52.160;20.910;2024-01-30T11:56:43;22.53;;;10.50;;
21170;SDS011;10743;52.160;20.910;2024-01-30T11:59:10;32.37;;;11.53;;
21170;SDS011;10743;52.160;20.910;2024-01-30T12:01:37;28.60;;;10.63;;
21170;SDS011;10743;52.160;20.910;2024-01-30T12:04:06;25.07;;;11.63;;
21170;SDS011;10743;52.160;20.910;2024-01-30T12:06:36;22.00;;;9.63;;
21170;SDS011;10743;52.160;20.910;2024-01-30T12:09:04;27.93;;;10.87;;
21170;SDS011;10743;52.160;20.910;2024-01-30T12:11:43;29.73;;;11.83;;
21170;SDS011;10743;52.160;20.910;2024-01-30T12:14:15;23.37;;;9.73;;
21170;SDS011;10743;52.160;20.910;2024-01-30T12:16:43;23.90;;;10.10;;
21170;SDS011;10743;52.160;20.910;2024-01-30T12:19:21;23.63;;;10.90;;
21170;SDS011;10743;52.160;20.910;2024-01-30T12:21:58;29.00;;;11.17;;
21170;SDS011;10743;52.160;20.910;2024-01-30T12:24:26;23.00;;;10.10;;
21170;SDS011;10743;52.160;20.910;2024-01-30T12:26:57;23.23;;;10.50;;
21170;SDS011;10743;52.160;20.910;2024-01-30T12:29:25;25.07;;;11.27;;
21170;SDS011;10743;52.160;20.910;2024-01-30T12:31:58;25.60;;;10.20;;
21170;SDS011;10743;52.160;20.910;2024-01-30T12:34:26;23.87;;;10.57;;
21170;SDS011;10743;52.160;20.910;2024-01-30T12:36:54;27.93;;;11.03;;
21170;SDS011;10743;52.160;20.910;2024-01-30T12:39:21;28.03;;;11.33;;
21170;SDS011;10743;52.160;20.910;2024-01-30T12:41:48;23.07;;;10.07;;
21170;SDS011;10743;52.160;20.910;2024-01-30T12:44:15;23.73;;;10.00;;
21170;SDS011;10743;52.160;20.910;2024-01-30T12:46:42;23.83;;;10.57;;
21170;SDS011;10743;52.160;20.910;2024-01-30T12:49:11;22.90;;;10.53;;
21170;SDS011;10743;52.160;20.910;2024-01-30T12:51:38;28.17;;;12.17;;
21170;SDS011;10743;52.160;20.910;2024-01-30T12:54:06;30.00;;;12.03;;
21170;SDS011;10743;52.160;20.910;2024-01-30T12:56:33;26.20;;;11.20;;
21170;SDS011;10743;52.160;20.910;2024-01-30T12:59:00;25.13;;;11.60;;
21170;SDS011;10743;52.160;20.910;2024-01-30T13:01:27;26.50;;;10.37;;
21170;SDS011;10743;52.160;20.910;2024-01-30T13:03:55;24.10;;;10.73;;
21170;SDS011;10743;52.160;20.910;2024-01-30T13:06:24;27.83;;;11.07;;
21170;SDS011;10743;52.160;20.910;2024-01-30T13:08:51;26.10;;;11.87;;
21170;SDS011;10743;52.160;20.910;2024-01-30T13:11:18;23.73;;;11.33;;
21170;SDS011;10743;52.160;20.910;2024-01-30T13:13:47;29.93;;;11.40;;
21170;SDS011;10743;52.160;20.910;2024-01-30T13:16:14;23.67;;;10.57;;
21170;SDS011;10743;52.160;20.910;2024-01-30T13:18:41;23.13;;;10.50;;
21170;SDS011;10743;52.160;20.910;2024-01-30T13:21:10;23.67;;;10.60;;
21170;SDS011;10743;52.160;20.910;2024-01-30T13:23:37;29.13;;;11.10;;
21170;SDS011;10743;52.160;20.910;2024-01-30T13:26:04;26.83;;;11.40;;
21170;SDS011;10743;52.160;20.910;2024-01-30T13:28:32;27.93;;;11.50;;
21170;SDS011;10743;52.160;20.910;2024-01-30T13:31:00;28.33;;;11.93;;
21170;SDS011;10743;52.160;20.910;2024-01-30T13:33:27;35.07;;;12.73;;
21170;SDS011;10743;52.160;20.910;2024-01-30T13:35:54;29.20;;;11.00;;
21170;SDS011;10743;52.160;20.910;2024-01-30T13:38:21;27.67;;;11.07;;
21170;SDS011;10743;52.160;20.910;2024-01-30T13:40:48;29.47;;;10.47;;
21170;SDS011;10743;52.160;20.910;2024-01-30T13:43:15;24.43;;;10.47;;
21170;SDS011;10743;52.160;20.910;2024-01-30T13:45:44;24.40;;;10.13;;
21170;SDS011;10743;52.160;20.910;2024-01-30T13:48:12;27.53;;;11.20;;
21170;SDS011;10743;52.160;20.910;2024-01-30T13:50:39;32.73;;;12.13;;
21170;SDS011;10743;52.160;20.910;2024-01-30T13:53:06;25.93;;;11.30;;
21170;SDS011;10743;52.160;20.910;2024-01-30T13:55:33;27.40;;;10.63;;
21170;SDS011;10743;52.160;20.910;2024-01-30T13:58:01;30.53;;;12.40;;
21170;SDS011;10743;52.160;20.910;2024-01-30T14:00:28;27.17;;;11.93;;
21170;SDS011;10743;52.160;20.910;2024-01-30T14:02:55;26.03;;;11.63;;
21170;SDS011;10743;52.160;20.910;2024-01-30T14:05:24;33.87;;;15.20;;
21170;SDS011;10743;52.160;20.910;2024-01-30T14:07:52;37.30;;;15.03;;
21170;SDS011;10743;52.160;20.910;2024-01-30T14:10:20;31.30;;;13.00;;
21170;SDS011;10743;52.160;20.910;2024-01-30T14:12:47;26.17;;;10.50;;